createdAt,value
2023-05-15T00:01:36.287Z,77.63
2023-05-15T00:04:40.212Z,77.84
2023-05-15T00:07:42.982Z,76.74
2023-05-15T00:10:54.103Z,77.18
2023-05-15T00:14:03.034Z,76.28
2023-05-15T00:17:06.180Z,75.45
2023-05-15T00:20:11.630Z,76.03
2023-05-15T00:23:14.136Z,75.29
2023-05-15T00:26:16.692Z,75.16
2023-05-15T00:29:19.482Z,75.65
2023-05-15T00:32:22.144Z,75.37
2023-05-15T00:35:26.409Z,74.95
2023-05-15T00:38:29.090Z,75.11
2023-05-15T00:41:33.009Z,74.23
2023-05-15T00:44:36.512Z,74.07
2023-05-15T00:47:39.818Z,74.26
2023-05-15T00:50:44.440Z,75.48
2023-05-15T00:53:46.977Z,75.37
2023-05-15T00:56:51.007Z,75.06
2023-05-15T00:59:54.082Z,74.48
2023-05-15T01:02:56.739Z,75.18
2023-05-15T01:06:00.851Z,75.61
2023-05-15T01:09:04.123Z,75.55
2023-05-15T01:12:08.930Z,76.25
2023-05-15T01:15:12.015Z,75.47
2023-05-15T01:18:14.667Z,76.42
2023-05-15T01:21:33.416Z,76.32
2023-05-15T01:24:49.142Z,76.28
2023-05-15T01:27:53.856Z,77.19
2023-05-15T01:30:57.302Z,77.79
2023-05-15T01:34:03.412Z,78.35
2023-05-15T01:37:07.074Z,77.87
2023-05-15T01:40:11.775Z,77.63
2023-05-15T01:43:20.102Z,77.21
2023-05-15T01:46:24.481Z,77.04
2023-05-15T01:49:28.412Z,77.01
2023-05-15T01:52:35.542Z,76.52
2023-05-15T01:55:39.138Z,76.19
2023-05-15T01:58:42.867Z,76.34
2023-05-15T02:01:46.010Z,76.13
2023-05-15T02:04:49.974Z,76.42
2023-05-15T02:07:52.966Z,76.76
2023-05-15T02:10:56.079Z,76.75
2023-05-15T02:14:00.172Z,77.47
2023-05-15T02:17:02.626Z,77.86
2023-05-15T02:20:07.678Z,78.25
2023-05-15T02:23:10.224Z,77.39
2023-05-15T02:26:26.538Z,77.30
2023-05-15T02:29:35.635Z,78.02
2023-05-15T02:32:43.570Z,77.96
2023-05-15T02:35:50.041Z,79.21
2023-05-15T02:38:54.348Z,78.68
2023-05-15T02:41:57.944Z,78.92
2023-05-15T02:45:01.730Z,79.30
2023-05-15T02:48:05.108Z,78.86
2023-05-15T02:51:08.287Z,77.88
2023-05-15T02:54:10.849Z,76.73
2023-05-15T02:57:13.425Z,75.80
2023-05-15T03:00:18.061Z,75.96
2023-05-15T03:03:20.648Z,75.55
2023-05-15T03:06:23.174Z,74.13
2023-05-15T03:09:26.318Z,73.80
2023-05-15T03:12:28.907Z,74.53
2023-05-15T03:15:32.821Z,73.82
2023-05-15T03:18:35.432Z,74.75
2023-05-15T03:21:38.009Z,73.91
2023-05-15T03:24:40.537Z,73.42
2023-05-15T03:27:43.033Z,73.92
2023-05-15T03:30:46.917Z,74.46
2023-05-15T03:33:49.980Z,73.66
2023-05-15T03:36:52.539Z,74.15
2023-05-15T03:39:55.191Z,73.88
2023-05-15T03:42:58.271Z,74.90
2023-05-15T03:46:02.225Z,75.11
2023-05-15T03:49:04.763Z,74.93
2023-05-15T03:52:07.941Z,74.60
2023-05-15T03:55:10.642Z,74.09
2023-05-15T03:58:13.163Z,74.52
2023-05-15T04:01:17.396Z,73.74
2023-05-15T04:04:20.178Z,73.43
2023-05-15T04:07:23.309Z,73.35
2023-05-15T04:10:26.530Z,72.91
2023-05-15T04:13:29.227Z,73.27
2023-05-15T04:16:33.274Z,72.25
2023-05-15T04:19:36.097Z,72.32
2023-05-15T04:22:38.966Z,72.39
2023-05-15T04:25:46.077Z,72.02
2023-05-15T04:29:00.280Z,71.57
2023-05-15T04:32:08.031Z,71.33
2023-05-15T04:35:12.594Z,70.65
2023-05-15T04:38:16.105Z,70.03
2023-05-15T04:41:18.797Z,69.41
2023-05-15T04:44:21.602Z,68.71
2023-05-15T04:47:26.108Z,68.27
2023-05-15T04:50:28.860Z,67.45
2023-05-15T04:53:31.423Z,65.79
2023-05-15T04:56:33.947Z,64.19
2023-05-15T04:59:36.652Z,63.83
2023-05-15T05:02:40.805Z,63.36
2023-05-15T05:05:43.384Z,62.96
2023-05-15T05:08:45.901Z,62.07
2023-05-15T05:11:48.653Z,61.73
2023-05-15T05:14:51.176Z,60.72
2023-05-15T05:17:55.277Z,60.25
2023-05-15T05:21:00.970Z,60.24
2023-05-15T05:24:03.526Z,59.95
2023-05-15T05:27:06.565Z,60.25
2023-05-15T05:30:10.099Z,59.13
2023-05-15T05:33:14.024Z,58.46
2023-05-15T05:36:16.567Z,58.62
2023-05-15T05:39:19.637Z,58.64
2023-05-15T05:42:22.203Z,58.70
2023-05-15T05:45:24.983Z,58.85
2023-05-15T05:48:29.039Z,58.57
2023-05-15T05:51:31.935Z,59.20
2023-05-15T05:54:34.591Z,59.44
2023-05-15T05:57:37.239Z,59.17
2023-05-15T06:00:39.728Z,59.03
2023-05-15T06:03:44.784Z,59.14
2023-05-15T06:06:47.419Z,59.27
2023-05-15T06:09:49.993Z,59.74
2023-05-15T06:12:52.690Z,59.93
2023-05-15T06:15:55.269Z,59.22
2023-05-15T06:18:59.089Z,59.72
2023-05-15T06:22:01.663Z,59.68
2023-05-15T06:25:05.296Z,59.48
2023-05-15T06:28:07.931Z,58.69
2023-05-15T06:31:10.659Z,57.97
2023-05-15T06:34:14.809Z,58.00
2023-05-15T06:37:17.449Z,57.89
2023-05-15T06:40:20.197Z,58.08
2023-05-15T06:43:22.922Z,57.62
2023-05-15T06:46:25.448Z,57.45
2023-05-15T06:49:29.330Z,56.98
2023-05-15T06:52:31.885Z,57.42
2023-05-15T06:55:36.417Z,57.96
2023-05-15T06:58:38.995Z,56.68
2023-05-15T07:01:41.541Z,56.46
2023-05-15T07:04:45.568Z,55.96
2023-05-15T07:07:48.156Z,55.55
2023-05-15T07:10:51.359Z,54.85
2023-05-15T07:13:54.194Z,54.33
2023-05-15T07:16:56.723Z,53.89
2023-05-15T07:20:00.781Z,53.39
2023-05-15T07:23:03.850Z,52.68
2023-05-15T07:26:08.794Z,51.66
2023-05-15T07:29:14.504Z,53.11
2023-05-15T07:32:17.150Z,53.14
2023-05-15T07:35:21.309Z,52.18
2023-05-15T07:38:24.057Z,52.77
2023-05-15T07:41:26.612Z,51.91
2023-05-15T07:44:29.215Z,52.26
2023-05-15T07:47:31.713Z,51.71
2023-05-15T07:50:35.583Z,51.42
2023-05-15T07:53:38.078Z,51.40
2023-05-15T07:56:41.427Z,50.87
2023-05-15T07:59:43.766Z,50.53
2023-05-15T08:02:47.398Z,51.01
2023-05-15T08:05:51.857Z,50.07
2023-05-15T08:08:54.455Z,49.77
2023-05-15T08:11:57.751Z,49.09
2023-05-15T08:15:00.243Z,49.82
2023-05-15T08:18:02.873Z,50.59
2023-05-15T08:21:07.387Z,48.92
2023-05-15T08:24:09.989Z,49.18
2023-05-15T08:27:12.833Z,47.60
2023-05-15T08:30:15.542Z,46.90
2023-05-15T08:33:18.155Z,47.30
2023-05-15T08:36:22.296Z,46.93
2023-05-15T08:39:25.701Z,46.20
2023-05-15T08:42:29.617Z,46.47
2023-05-15T08:45:32.052Z,46.03
2023-05-15T08:48:38.300Z,45.61
2023-05-15T08:51:42.457Z,45.71
2023-05-15T08:54:47.983Z,45.93
2023-05-15T08:57:51.713Z,44.93
2023-05-15T09:00:54.184Z,44.33
2023-05-15T09:03:56.925Z,44.23
2023-05-15T09:07:01.884Z,43.75
2023-05-15T09:10:05.628Z,41.35
2023-05-15T09:13:08.987Z,39.99
2023-05-15T09:16:11.663Z,41.31
2023-05-15T09:19:15.280Z,41.91
2023-05-15T09:22:23.352Z,40.55
2023-05-15T09:25:37.521Z,41.74
2023-05-15T09:28:40.897Z,44.80
2023-05-15T09:31:43.319Z,44.79
2023-05-15T09:34:46.048Z,45.42
2023-05-15T09:37:59.661Z,45.33
2023-05-15T09:41:04.061Z,44.59
2023-05-15T09:44:07.041Z,44.38
2023-05-15T09:47:10.763Z,42.49
2023-05-15T09:50:13.400Z,42.91
2023-05-15T09:53:21.480Z,42.18
2023-05-15T09:56:24.253Z,42.29
2023-05-15T09:59:26.778Z,41.61
2023-05-15T10:02:32.512Z,41.14
2023-05-15T10:08:52.270Z,39.20
2023-05-15T10:11:54.821Z,39.04
2023-05-15T10:14:58.412Z,38.99
2023-05-15T10:18:01.572Z,39.39
2023-05-15T10:21:04.701Z,39.53
2023-05-15T10:24:09.032Z,40.65
2023-05-15T10:27:11.918Z,40.25
2023-05-15T10:30:16.782Z,39.48
2023-05-15T10:33:20.634Z,37.48
2023-05-15T10:36:23.413Z,37.55
2023-05-15T10:39:28.470Z,37.67
2023-05-15T10:42:32.279Z,36.99
2023-05-15T10:45:36.104Z,36.17
2023-05-15T10:48:39.076Z,37.01
2023-05-15T10:51:43.473Z,36.07
2023-05-15T10:54:47.404Z,38.07
2023-05-15T10:57:49.928Z,35.80
2023-05-15T11:00:52.503Z,35.91
2023-05-15T11:04:07.655Z,35.44
2023-05-15T11:07:14.215Z,34.21
2023-05-15T11:10:39.527Z,34.40
2023-05-15T11:14:13.346Z,34.21
2023-05-15T11:17:16.537Z,32.18
2023-05-15T11:20:19.415Z,32.68
2023-05-15T11:23:22.761Z,34.44
2023-05-15T11:26:34.810Z,35.38
2023-05-15T11:29:37.284Z,36.80
2023-05-15T11:32:44.178Z,36.78
2023-05-15T11:35:47.909Z,35.33
2023-05-15T11:38:51.604Z,34.63
2023-05-15T11:41:56.063Z,34.11
2023-05-15T11:44:58.849Z,33.62
2023-05-15T11:48:03.354Z,34.22
2023-05-15T11:51:06.696Z,33.34
2023-05-15T11:54:09.530Z,34.02
2023-05-15T11:57:13.404Z,33.59
2023-05-15T12:00:16.957Z,32.33
2023-05-15T12:03:24.256Z,32.13
2023-05-15T12:06:27.455Z,31.13
2023-05-15T12:09:29.824Z,31.12
2023-05-15T12:12:33.763Z,31.78
2023-05-15T12:15:38.732Z,30.74
2023-05-15T12:18:41.309Z,30.57
2023-05-15T12:21:47.435Z,30.26
2023-05-15T12:24:49.996Z,29.04
2023-05-15T12:27:54.004Z,27.58
2023-05-15T12:30:56.830Z,27.17
2023-05-15T12:33:59.535Z,27.68
2023-05-15T12:37:02.090Z,27.70
2023-05-15T12:40:10.143Z,28.00
2023-05-15T12:43:14.545Z,26.88
2023-05-15T12:46:17.092Z,27.25
2023-05-15T12:49:23.381Z,28.01
2023-05-15T12:52:29.321Z,29.92
2023-05-15T12:55:33.507Z,30.90
2023-05-15T12:58:38.129Z,31.17
2023-05-15T13:01:42.161Z,31.01
2023-05-15T13:04:47.405Z,30.23
2023-05-15T13:07:50.100Z,30.01
2023-05-15T13:10:57.850Z,30.44
2023-05-15T13:14:01.757Z,29.03
2023-05-15T13:17:04.738Z,27.99
2023-05-15T13:20:08.706Z,27.22
2023-05-15T13:23:12.589Z,27.62
2023-05-15T13:26:15.232Z,28.10
2023-05-15T13:29:19.337Z,30.15
2023-05-15T13:32:22.009Z,31.86
2023-05-15T13:35:24.843Z,30.93
2023-05-15T13:38:27.372Z,30.92
2023-05-15T13:41:29.946Z,29.19
2023-05-15T13:44:35.734Z,28.49
2023-05-15T13:47:39.405Z,28.06
2023-05-15T13:50:43.205Z,30.20
2023-05-15T13:53:46.534Z,33.02
2023-05-15T13:56:49.248Z,35.06
2023-05-15T13:59:53.239Z,36.04
2023-05-15T14:02:55.750Z,35.64
2023-05-15T14:05:58.311Z,36.42
2023-05-15T14:09:00.778Z,35.06
2023-05-15T14:12:03.313Z,33.93
2023-05-15T14:15:08.321Z,33.58
2023-05-15T14:18:10.878Z,33.58
2023-05-15T14:21:13.515Z,30.75
2023-05-15T14:24:16.106Z,30.74
2023-05-15T14:27:18.620Z,31.03
2023-05-15T14:30:23.241Z,33.33
2023-05-15T14:33:26.395Z,34.79
2023-05-15T14:36:28.890Z,35.01
2023-05-15T14:39:31.428Z,34.08
2023-05-15T14:42:34.040Z,31.37
2023-05-15T14:45:37.905Z,29.64
2023-05-15T14:48:40.446Z,31.40
2023-05-15T14:51:42.997Z,30.57
2023-05-15T14:54:51.205Z,30.66
2023-05-15T14:57:59.808Z,29.62
2023-05-15T15:01:03.969Z,27.93
2023-05-15T15:04:06.865Z,24.62
2023-05-15T15:07:11.763Z,25.91
2023-05-15T15:10:14.272Z,26.91
2023-05-15T15:13:17.233Z,27.65
2023-05-15T15:16:20.912Z,30.70
2023-05-15T15:19:24.633Z,33.29
2023-05-15T15:22:27.258Z,35.04
2023-05-15T15:25:32.141Z,35.24
2023-05-15T15:28:35.294Z,35.75
2023-05-15T15:31:39.161Z,35.24
2023-05-15T15:34:41.728Z,31.59
2023-05-15T15:37:44.184Z,30.30
2023-05-15T15:40:46.768Z,29.81
2023-05-15T15:43:49.359Z,31.86
2023-05-15T15:46:53.247Z,33.83
2023-05-15T15:49:55.776Z,37.58
2023-05-15T15:52:58.552Z,38.50
2023-05-15T15:56:01.327Z,40.49
2023-05-15T15:59:03.928Z,42.05
2023-05-15T16:02:08.031Z,41.89
2023-05-15T16:05:11.039Z,42.12
2023-05-15T16:08:13.577Z,44.01
2023-05-15T16:11:16.616Z,43.61
2023-05-15T16:14:20.506Z,46.97
2023-05-15T16:17:24.421Z,46.31
2023-05-15T16:20:27.055Z,46.86
2023-05-15T16:23:29.796Z,43.89
2023-05-15T16:26:32.756Z,44.79
2023-05-15T16:29:35.367Z,49.21
2023-05-15T16:32:39.312Z,51.39
2023-05-15T16:35:41.834Z,51.59
2023-05-15T16:38:44.380Z,51.90
2023-05-15T16:41:47.033Z,51.20
2023-05-15T16:44:49.810Z,51.50
2023-05-15T16:47:54.054Z,50.17
2023-05-15T16:50:56.571Z,50.05
2023-05-15T16:53:59.470Z,48.70
2023-05-15T16:57:01.975Z,47.16
2023-05-15T17:00:05.278Z,47.02
2023-05-15T17:03:09.622Z,45.89
2023-05-15T17:06:12.228Z,45.97
2023-05-15T17:09:15.900Z,46.30
2023-05-15T17:12:18.672Z,45.64
2023-05-15T17:15:21.316Z,44.52
2023-05-15T17:18:25.352Z,44.28
2023-05-15T17:21:27.843Z,43.73
2023-05-15T17:24:42.203Z,42.97
2023-05-15T17:27:52.385Z,41.68
2023-05-15T17:30:54.858Z,40.87
2023-05-15T17:33:58.831Z,39.62
2023-05-15T17:37:01.394Z,38.48
2023-05-15T17:40:04.734Z,37.89
2023-05-15T17:43:09.711Z,38.19
2023-05-15T17:46:12.284Z,38.93
2023-05-15T17:49:16.204Z,39.75
2023-05-15T17:52:18.776Z,38.92
2023-05-15T17:55:21.499Z,39.94
2023-05-15T17:58:24.045Z,40.80
2023-05-15T18:01:26.580Z,41.57
2023-05-15T18:04:30.567Z,42.37
2023-05-15T18:07:33.184Z,43.12
2023-05-15T18:10:35.858Z,44.16
2023-05-15T18:13:38.342Z,45.50
2023-05-15T18:16:41.251Z,45.61
2023-05-15T18:19:45.580Z,46.99
2023-05-15T18:22:48.111Z,49.08
2023-05-15T18:25:51.719Z,50.01
2023-05-15T18:28:54.158Z,50.94
2023-05-15T18:31:56.787Z,51.42
2023-05-15T18:35:00.952Z,53.56
2023-05-15T18:38:03.631Z,54.20
2023-05-15T18:41:06.365Z,54.75
2023-05-15T18:44:09.052Z,54.72
2023-05-15T18:47:11.879Z,55.20
2023-05-15T18:50:16.269Z,55.31
2023-05-15T18:53:18.760Z,55.95
2023-05-15T18:56:22.509Z,56.29
2023-05-15T18:59:25.493Z,56.68
2023-05-15T19:02:28.449Z,56.97
2023-05-15T19:05:34.017Z,56.62
2023-05-15T19:08:36.998Z,57.08
2023-05-15T19:11:39.666Z,56.72
2023-05-15T19:14:42.258Z,57.42
2023-05-15T19:17:44.947Z,56.57
2023-05-15T19:20:51.881Z,55.63
2023-05-15T19:23:54.498Z,55.61
2023-05-15T19:26:57.155Z,55.21
2023-05-15T19:29:59.925Z,55.37
2023-05-15T19:33:02.636Z,55.57
2023-05-15T19:36:07.428Z,56.05
2023-05-15T19:39:09.941Z,56.39
2023-05-15T19:42:12.476Z,56.20
2023-05-15T19:45:15.072Z,56.27
2023-05-15T19:48:17.583Z,56.22
2023-05-15T19:51:21.417Z,56.17
2023-05-15T19:54:24.012Z,56.28
2023-05-15T19:57:26.497Z,57.04
2023-05-15T20:00:29.078Z,57.57
2023-05-15T20:03:33.554Z,57.56
2023-05-15T20:06:37.549Z,57.37
2023-05-15T20:09:40.138Z,57.01
2023-05-15T20:12:42.611Z,57.37
2023-05-15T20:15:45.339Z,57.48
2023-05-15T20:18:47.972Z,57.89
2023-05-15T20:21:51.892Z,58.23
2023-05-15T20:24:54.634Z,58.83
2023-05-15T20:27:58.681Z,59.52
2023-05-15T20:31:01.593Z,59.81
2023-05-15T20:34:07.216Z,60.17
2023-05-15T20:37:11.099Z,60.94
2023-05-15T20:40:15.695Z,60.75
2023-05-15T20:43:18.236Z,61.17
2023-05-15T20:46:21.157Z,61.45
2023-05-15T20:49:23.785Z,61.64
2023-05-15T20:52:27.680Z,62.18
2023-05-15T20:55:30.350Z,62.52
2023-05-15T20:58:33.238Z,62.55
2023-05-15T21:01:36.366Z,62.89
2023-05-15T21:04:39.347Z,63.20
2023-05-15T21:07:43.440Z,63.37
2023-05-15T21:10:50.922Z,63.32
2023-05-15T21:13:53.455Z,63.94
2023-05-15T21:16:56.495Z,64.34
2023-05-15T21:20:00.952Z,64.47
2023-05-15T21:23:04.924Z,64.27
2023-05-15T21:26:07.690Z,64.84
2023-05-15T21:29:10.224Z,64.81
2023-05-15T21:32:12.763Z,65.38
2023-05-15T21:35:15.257Z,66.02
2023-05-15T21:38:19.093Z,66.20
2023-05-15T21:41:22.125Z,66.27
2023-05-15T21:44:24.786Z,66.68
2023-05-15T21:47:27.416Z,66.76
2023-05-15T21:50:30.060Z,66.91
2023-05-15T21:53:33.977Z,67.62
2023-05-15T21:56:36.794Z,67.04
2023-05-15T21:59:39.827Z,66.97
2023-05-15T22:02:42.930Z,67.04
2023-05-15T22:05:45.888Z,67.39
2023-05-15T22:08:50.037Z,67.95
2023-05-15T22:11:52.567Z,67.96
2023-05-15T22:14:59.046Z,67.88
2023-05-15T22:18:05.353Z,67.95
2023-05-15T22:21:08.561Z,68.40
2023-05-15T22:24:12.630Z,68.83
2023-05-15T22:27:16.865Z,68.57
2023-05-15T22:30:19.792Z,68.56
2023-05-15T22:33:24.096Z,68.30
2023-05-15T22:36:26.799Z,68.92
2023-05-15T22:39:30.789Z,68.88
2023-05-15T22:42:33.440Z,68.80
2023-05-15T22:45:36.193Z,68.82
2023-05-15T22:48:38.766Z,68.69
2023-05-15T22:51:41.391Z,69.06
2023-05-15T22:54:45.813Z,69.82
2023-05-15T22:57:48.321Z,69.40
2023-05-15T23:00:51.164Z,69.39
2023-05-15T23:03:53.813Z,70.02
2023-05-15T23:06:56.924Z,70.38
2023-05-15T23:10:00.890Z,70.12
2023-05-15T23:13:03.568Z,69.15
2023-05-15T23:16:06.690Z,69.44
2023-05-15T23:19:09.509Z,69.83
2023-05-15T23:22:12.752Z,69.71
2023-05-15T23:25:16.793Z,70.54
2023-05-15T23:28:19.484Z,70.04
2023-05-15T23:31:22.019Z,70.40
2023-05-15T23:34:24.914Z,69.89
2023-05-15T23:37:27.487Z,69.82
2023-05-15T23:40:31.565Z,70.00
2023-05-15T23:43:34.210Z,70.49
2023-05-15T23:46:38.569Z,70.71
2023-05-15T23:49:42.060Z,70.59
2023-05-15T23:52:45.228Z,71.18
2023-05-15T23:55:49.241Z,71.19
2023-05-15T23:58:51.805Z,71.56
